Tabellarische Übersicht vom Dienstag, den 24.04.2018

Oder anderes Datum wählen:






max 12,6°C 93,0% 10,2°C 1017,0hPa 13,0°C 0,0km/h (0Bft) 0,0km/h 0° (N) ∑0,0l/m² 55,000klx ∑10,8min
min 8,9°C 77,0% 6,1°C 1015,3hPa 9,0°C 0,0km/h (0Bft) 0,0km/h 0° (N) ∑0,0l/m² 0,000klx ∑10,8min
Ø 10,4°C 83,0% 7,7°C 1016,3hPa 10,0°C 0,0km/h (0Bft) 0,0km/h 0° (N) ∑0,0l/m² 16,000klx ∑10,8min
Zeit Temperatur Luftfeuchte Taupunkt Luftdruck Windchill Windböen Windgeschwindigkeit Windrichtung Regen Helligkeit Regenzeit
14:30 12,6°C 83,9% 9,9°C 1016,6hPa 12,6°C 0,0km/h (0Bft) 0,0km/h 0,0l/m² 14,314klx 0,0min
14:25 12,6°C 83,9% 9,9°C 1016,6hPa 12,6°C 0,0km/h (0Bft) 0,0km/h 0,0l/m² 14,312klx 0,0min
14:20 12,6°C 85,0% 10,1°C 1016,5hPa 12,6°C 0,0km/h (0Bft) 0,0km/h 0,0l/m² 15,309klx 0,0min
14:15 12,5°C 85,5% 10,2°C 1016,5hPa 12,5°C 0,0km/h (0Bft) 0,0km/h 0,0l/m² 21,096klx 0,0min
14:10 12,3°C 85,2% 9,9°C 1016,5hPa 12,3°C 0,0km/h (0Bft) 0,0km/h 0,0l/m² 21,329klx 0,0min
14:05 12,2°C 86,2% 10,0°C 1016,5hPa 12,2°C 0,0km/h (0Bft) 0,0km/h 0,0l/m² 16,035klx 0,0min
14:00 12,1°C 85,9% 9,9°C 1016,6hPa 12,1°C 0,0km/h (0Bft) 0,0km/h 0,0l/m² 14,029klx 0,0min
13:55 12,1°C 86,0% 9,8°C 1016,7hPa 12,1°C 0,0km/h (0Bft) 0,0km/h 0,0l/m² 12,769klx 0,0min
13:50 12,0°C 85,6% 9,7°C 1016,8hPa 12,0°C 0,0km/h (0Bft) 0,0km/h 0,0l/m² 11,223klx 0,0min
13:45 12,1°C 85,5% 9,7°C 1016,7hPa 12,1°C 0,0km/h (0Bft) 0,0km/h 0,0l/m² 12,408klx 0,0min
13:40 12,1°C 85,6% 9,7°C 1016,6hPa 12,1°C 0,0km/h (0Bft) 0,0km/h 0,0l/m² 14,347klx 0,0min
13:35 12,3°C 85,6% 9,9°C 1016,5hPa 12,3°C 0,0km/h (0Bft) 0,0km/h 0,0l/m² 16,669klx 0,0min
13:30 12,2°C 85,4% 9,8°C 1016,5hPa 12,2°C 0,0km/h (0Bft) 0,0km/h 0,0l/m² 24,859klx 0,0min
13:25 12,1°C 85,6% 9,7°C 1016,5hPa 12,1°C 0,0km/h (0Bft) 0,0km/h 0,0l/m² 27,628klx 0,0min
13:20 12,0°C 85,9% 9,7°C 1016,5hPa 12,0°C 0,0km/h (0Bft) 0,0km/h 0,0l/m² 25,195klx 0,0min
13:15 11,9°C 86,1% 9,7°C 1016,6hPa 11,9°C 0,0km/h (0Bft) 0,0km/h 0,0l/m² 20,631klx 0,0min
13:10 12,0°C 86,5% 9,8°C 1016,5hPa 12,0°C 0,0km/h (0Bft) 0,0km/h 0,0l/m² 21,227klx 0,0min
13:05 11,8°C 86,4% 9,6°C 1016,6hPa 11,8°C 0,0km/h (0Bft) 0,0km/h 0,0l/m² 19,908klx 0,0min
13:00 11,8°C 86,5% 9,6°C 1016,5hPa 11,8°C 0,0km/h (0Bft) 0,0km/h 0,0l/m² 22,708klx 0,0min
12:55 11,5°C 86,7% 9,4°C 1016,6hPa 11,5°C 0,0km/h (0Bft) 0,0km/h 0,0l/m² 23,608klx 0,0min
12:50 11,6°C 86,7% 9,4°C 1016,6hPa 11,6°C 0,0km/h (0Bft) 0,0km/h 0,0l/m² 23,817klx 0,0min
12:45 11,4°C 87,5% 9,4°C 1016,7hPa 11,4°C 0,0km/h (0Bft) 0,0km/h 0,0l/m² 20,954klx 0,0min
12:40 11,4°C 87,3% 9,3°C 1016,8hPa 11,4°C 0,0km/h (0Bft) 0,0km/h 0,0l/m² 18,434klx 0,0min
12:35 11,4°C 87,3% 9,3°C 1016,8hPa 11,4°C 0,0km/h (0Bft) 0,0km/h 0,0l/m² 19,024klx 0,0min
12:30 11,3°C 87,6% 9,4°C 1016,7hPa 11,3°C 0,0km/h (0Bft) 0,0km/h 0,0l/m² 23,838klx 0,0min
12:25 11,4°C 88,1% 9,5°C 1016,8hPa 11,4°C 0,0km/h (0Bft) 0,0km/h 0,0l/m² 21,178klx 0,0min
12:20 11,1°C 88,3% 9,3°C 1016,8hPa 11,1°C 0,0km/h (0Bft) 0,0km/h 0,0l/m² 21,180klx 0,0min
12:15 11,0°C 88,5% 9,2°C 1016,8hPa 11,0°C 0,0km/h (0Bft) 0,0km/h 0,0l/m² 18,393klx 0,0min
12:10 10,9°C 88,1% 9,0°C 1016,9hPa 10,9°C 0,0km/h (0Bft) 0,0km/h 0,0l/m² 14,778klx 0,0min
12:05 10,8°C 88,2% 9,0°C 1016,8hPa 10,8°C 0,0km/h (0Bft) 0,0km/h 0,0l/m² 16,918klx 0,0min
12:00 10,8°C 87,9% 8,9°C 1016,8hPa 10,8°C 0,0km/h (0Bft) 0,0km/h 0,0l/m² 17,823klx 0,0min
11:55 10,9°C 88,0% 9,0°C 1016,9hPa 10,9°C 0,0km/h (0Bft) 0,0km/h 0,0l/m² 14,782klx 0,0min
11:50 10,9°C 88,7% 9,1°C 1016,9hPa 10,9°C 0,0km/h (0Bft) 0,0km/h 0,0l/m² 15,400klx 0,0min
11:45 10,9°C 88,6% 9,1°C 1016,8hPa 10,9°C 0,0km/h (0Bft) 0,0km/h 0,0l/m² 20,998klx 0,0min
11:40 10,9°C 89,1% 9,2°C 1016,8hPa 10,9°C 0,0km/h (0Bft) 0,0km/h 0,0l/m² 27,434klx 0,0min
11:35 10,8°C 88,8% 9,1°C 1016,7hPa 10,8°C 0,0km/h (0Bft) 0,0km/h 0,0l/m² 29,625klx 0,0min
11:30 11,0°C 89,0% 9,3°C 1016,7hPa 11,0°C 0,0km/h (0Bft) 0,0km/h 0,0l/m² 32,245klx 0,3min
11:25 10,7°C 88,0% 8,8°C 1016,7hPa 10,7°C 0,0km/h (0Bft) 0,0km/h 0,0l/m² 36,231klx 2,5min
11:20 10,8°C 87,1% 8,7°C 1016,8hPa 10,8°C 0,0km/h (0Bft) 0,0km/h 0,0l/m² 33,811klx 2,7min
11:15 10,8°C 86,4% 8,6°C 1016,9hPa 10,8°C 0,0km/h (0Bft) 0,0km/h 0,0l/m² 25,581klx 1,9min
11:10 11,0°C 84,0% 8,4°C 1017,0hPa 11,0°C 0,0km/h (0Bft) 0,0km/h 0,0l/m² 18,678klx 1,2min
11:05 11,5°C 79,7% 8,1°C 1016,9hPa 11,5°C 0,0km/h (0Bft) 0,0km/h 0,0l/m² 20,526klx 2,3min
11:00 12,0°C 78,0% 8,3°C 1016,8hPa 12,0°C 0,0km/h (0Bft) 0,0km/h 0,0l/m² 30,520klx 0,0min
10:55 12,0°C 77,2% 8,1°C 1016,7hPa 12,0°C 0,0km/h (0Bft) 0,0km/h 0,0l/m² 39,327klx 0,0min
10:50 11,9°C 77,0% 8,0°C 1016,6hPa 11,9°C 0,0km/h (0Bft) 0,0km/h 0,0l/m² 54,903klx 0,0min
10:45 12,1°C 77,8% 8,3°C 1016,5hPa 12,1°C 0,0km/h (0Bft) 0,0km/h 0,0l/m² 46,288klx 0,0min
10:40 11,7°C 78,4% 8,0°C 1016,4hPa 11,7°C 0,0km/h (0Bft) 0,0km/h 0,0l/m² 47,161klx 0,0min
10:35 11,4°C 78,5% 7,8°C 1016,4hPa 11,4°C 0,0km/h (0Bft) 0,0km/h 0,0l/m² 35,158klx 0,0min
10:30 11,4°C 78,5% 7,8°C 1016,4hPa 11,4°C 0,0km/h (0Bft) 0,0km/h 0,0l/m² 33,298klx 0,0min
10:25 11,2°C 79,2% 7,7°C 1016,4hPa 11,2°C 0,0km/h (0Bft) 0,0km/h 0,0l/m² 30,500klx 0,0min
10:20 10,9°C 79,1% 7,4°C 1016,4hPa 10,9°C 0,0km/h (0Bft) 0,0km/h 0,0l/m² 20,914klx 0,0min
10:15 10,9°C 78,9% 7,4°C 1016,4hPa 10,9°C 0,0km/h (0Bft) 0,0km/h 0,0l/m² 16,337klx 0,0min
10:10 11,0°C 78,6% 7,5°C 1016,4hPa 11,0°C 0,0km/h (0Bft) 0,0km/h 0,0l/m² 17,229klx 0,0min
10:05 11,0°C 78,4% 7,4°C 1016,4hPa 11,0°C 0,0km/h (0Bft) 0,0km/h 0,0l/m² 19,201klx 0,0min
10:00 11,0°C 78,6% 7,4°C 1016,4hPa 11,0°C 0,0km/h (0Bft) 0,0km/h 0,0l/m² 18,369klx 0,0min
09:55 10,8°C 79,0% 7,3°C 1016,4hPa 10,8°C 0,0km/h (0Bft) 0,0km/h 0,0l/m² 15,246klx 0,0min
09:50 10,8°C 79,0% 7,3°C 1016,5hPa 10,8°C 0,0km/h (0Bft) 0,0km/h 0,0l/m² 13,483klx 0,0min
09:45 10,8°C 78,9% 7,3°C 1016,5hPa 10,8°C 0,0km/h (0Bft) 0,0km/h 0,0l/m² 13,225klx 0,0min
09:40 10,8°C 78,2% 7,1°C 1016,4hPa 10,8°C 0,0km/h (0Bft) 0,0km/h 0,0l/m² 13,876klx 0,0min
09:35 10,7°C 78,5% 7,2°C 1016,4hPa 10,7°C 0,0km/h (0Bft) 0,0km/h 0,0l/m² 13,509klx 0,0min
09:30 10,7°C 78,2% 7,1°C 1016,3hPa 10,7°C 0,0km/h (0Bft) 0,0km/h 0,0l/m² 12,768klx 0,0min
09:25 10,8°C 78,1% 7,1°C 1016,3hPa 10,8°C 0,0km/h (0Bft) 0,0km/h 0,0l/m² 15,203klx 0,0min
09:20 10,7°C 78,4% 7,1°C 1016,1hPa 10,7°C 0,0km/h (0Bft) 0,0km/h 0,0l/m² 18,559klx 0,0min
09:15 10,7°C 77,8% 6,9°C 1016,1hPa 10,7°C 0,0km/h (0Bft) 0,0km/h 0,0l/m² 18,230klx 0,0min
09:10 10,7°C 77,9% 6,9°C 1016,1hPa 10,7°C 0,0km/h (0Bft) 0,0km/h 0,0l/m² 18,476klx 0,0min
09:05 10,7°C 78,4% 7,1°C 1016,1hPa 10,7°C 0,0km/h (0Bft) 0,0km/h 0,0l/m² 18,035klx 0,0min
09:00 10,6°C 78,5% 7,0°C 1016,1hPa 10,6°C 0,0km/h (0Bft) 0,0km/h 0,0l/m² 17,638klx 0,0min
08:55 10,5°C 78,8% 7,0°C 1016,1hPa 10,5°C 0,0km/h (0Bft) 0,0km/h 0,0l/m² 19,455klx 0,0min
08:50 10,4°C 78,5% 6,8°C 1016,2hPa 10,4°C 0,0km/h (0Bft) 0,0km/h 0,0l/m² 19,778klx 0,0min
08:45 10,4°C 79,2% 6,9°C 1016,2hPa 10,4°C 0,0km/h (0Bft) 0,0km/h 0,0l/m² 20,059klx 0,0min
08:40 10,2°C 79,4% 6,8°C 1016,2hPa 10,2°C 0,0km/h (0Bft) 0,0km/h 0,0l/m² 18,909klx 0,0min
08:35 10,2°C 80,0% 6,9°C 1016,3hPa 10,2°C 0,0km/h (0Bft) 0,0km/h 0,0l/m² 17,535klx 0,0min
08:30 10,1°C 79,8% 6,7°C 1016,3hPa 10,1°C 0,0km/h (0Bft) 0,0km/h 0,0l/m² 18,287klx 0,0min
08:25 10,0°C 80,4% 6,8°C 1016,3hPa 10,0°C 0,0km/h (0Bft) 0,0km/h 0,0l/m² 15,783klx 0,0min
08:20 10,0°C 80,5% 6,8°C 1016,3hPa 10,0°C 0,0km/h (0Bft) 0,0km/h 0,0l/m² 12,853klx 0,0min
08:15 9,9°C 79,8% 6,6°C 1016,3hPa 9,9°C 0,0km/h (0Bft) 0,0km/h 0,0l/m² 11,169klx 0,0min
08:10 9,9°C 80,5% 6,7°C 1016,3hPa 9,9°C 0,0km/h (0Bft) 0,0km/h 0,0l/m² 9,854klx 0,0min
08:05 9,8°C 80,2% 6,6°C 1016,2hPa 9,8°C 0,0km/h (0Bft) 0,0km/h 0,0l/m² 9,054klx 0,0min
08:00 9,8°C 80,6% 6,6°C 1016,2hPa 9,8°C 0,0km/h (0Bft) 0,0km/h 0,0l/m² 9,296klx 0,0min
07:55 9,8°C 80,6% 6,6°C 1016,2hPa 9,8°C 0,0km/h (0Bft) 0,0km/h 0,0l/m² 8,767klx 0,0min
07:50 9,8°C 80,5% 6,6°C 1016,2hPa 9,8°C 0,0km/h (0Bft) 0,0km/h 0,0l/m² 8,179klx 0,0min
07:45 9,7°C 80,7% 6,6°C 1016,1hPa 9,7°C 0,0km/h (0Bft) 0,0km/h 0,0l/m² 8,863klx 0,0min
07:40 9,6°C 81,0% 6,5°C 1016,1hPa 9,6°C 0,0km/h (0Bft) 0,0km/h 0,0l/m² 9,197klx 0,0min
07:35 9,6°C 81,1% 6,5°C 1016,1hPa 9,6°C 0,0km/h (0Bft) 0,0km/h 0,0l/m² 8,761klx 0,0min
07:30 9,5°C 81,0% 6,4°C 1016,1hPa 9,5°C 0,0km/h (0Bft) 0,0km/h 0,0l/m² 7,569klx 0,0min
07:25 9,5°C 81,5% 6,5°C 1016,0hPa 9,5°C 0,0km/h (0Bft) 0,0km/h 0,0l/m² 5,577klx 0,0min
07:20 9,5°C 81,6% 6,5°C 1016,1hPa 9,5°C 0,0km/h (0Bft) 0,0km/h 0,0l/m² 4,211klx 0,0min
07:15 9,5°C 81,4% 6,5°C 1016,1hPa 9,5°C 0,0km/h (0Bft) 0,0km/h 0,0l/m² 3,520klx 0,0min
07:10 9,4°C 81,4% 6,4°C 1016,1hPa 9,4°C 0,0km/h (0Bft) 0,0km/h 0,0l/m² 3,343klx 0,0min
07:05 9,4°C 82,0% 6,5°C 1016,1hPa 9,4°C 0,0km/h (0Bft) 0,0km/h 0,0l/m² 3,136klx 0,0min
07:00 9,3°C 82,3% 6,5°C 1016,0hPa 9,3°C 0,0km/h (0Bft) 0,0km/h 0,0l/m² 2,779klx 0,0min
06:55 9,3°C 82,3% 6,5°C 1015,9hPa 9,3°C 0,0km/h (0Bft) 0,0km/h 0,0l/m² 2,160klx 0,0min
06:50 9,3°C 82,8% 6,5°C 1015,9hPa 9,3°C 0,0km/h (0Bft) 0,0km/h 0,0l/m² 1,760klx 0,0min
06:45 9,2°C 82,2% 6,3°C 1015,7hPa 9,2°C 0,0km/h (0Bft) 0,0km/h 0,0l/m² 1,646klx 0,0min
06:40 9,1°C 82,4% 6,3°C 1015,5hPa 9,1°C 0,0km/h (0Bft) 0,0km/h 0,0l/m² 1,433klx 0,0min
06:35 9,1°C 82,6% 6,2°C 1015,4hPa 9,1°C 0,0km/h (0Bft) 0,0km/h 0,0l/m² 1,147klx 0,0min
06:30 9,0°C 82,9% 6,2°C 1015,4hPa 9,0°C 0,0km/h (0Bft) 0,0km/h 0,0l/m² 0,897klx 0,0min
06:25 8,9°C 82,9% 6,2°C 1015,3hPa 8,9°C 0,0km/h (0Bft) 0,0km/h 0,0l/m² 0,720klx 0,0min
06:20 8,9°C 83,0% 6,2°C 1015,3hPa 8,9°C 0,0km/h (0Bft) 0,0km/h 0,0l/m² 0,438klx 0,0min
06:15 8,9°C 82,8% 6,2°C 1015,5hPa 8,9°C 0,0km/h (0Bft) 0,0km/h 0,0l/m² 0,266klx 0,0min
06:10 8,9°C 83,0% 6,2°C 1015,5hPa 8,9°C 0,0km/h (0Bft) 0,0km/h 0,0l/m² 0,162klx 0,0min
06:05 8,9°C 82,8% 6,2°C 1015,6hPa 8,9°C 0,0km/h (0Bft) 0,0km/h 0,0l/m² 0,088klx 0,0min
06:00 9,0°C 82,5% 6,1°C 1015,6hPa 9,0°C 0,0km/h (0Bft) 0,0km/h 0,0l/m² 0,044klx 0,0min
05:55 8,9°C 83,1% 6,2°C 1015,7hPa 8,9°C 0,0km/h (0Bft) 0,0km/h 0,0l/m² 0,021klx 0,0min
05:50 8,9°C 83,1% 6,2°C 1015,6hPa 8,9°C 0,0km/h (0Bft) 0,0km/h 0,0l/m² 0,009klx 0,0min
05:45 9,0°C 82,7% 6,2°C 1015,6hPa 9,0°C 0,0km/h (0Bft) 0,0km/h 0,0l/m² 0,004klx 0,0min
05:40 9,0°C 82,4% 6,1°C 1015,8hPa 9,0°C 0,0km/h (0Bft) 0,0km/h 0,0l/m² 0,002klx 0,0min
05:35 8,9°C 83,0% 6,2°C 1015,8hPa 8,9°C 0,0km/h (0Bft) 0,0km/h 0,0l/m² 0,001klx 0,0min
05:30 9,0°C 83,0% 6,2°C 1015,9hPa 9,0°C 0,0km/h (0Bft) 0,0km/h 0,0l/m² 0,001klx 0,0min
05:25 9,0°C 83,0% 6,2°C 1015,8hPa 9,0°C 0,0km/h (0Bft) 0,0km/h 0,0l/m² 0,000klx 0,0min
05:20 9,0°C 82,7% 6,2°C 1015,8hPa 9,0°C 0,0km/h (0Bft) 0,0km/h 0,0l/m² 0,000klx 0,0min
05:15 9,1°C 82,5% 6,3°C 1015,9hPa 9,1°C 0,0km/h (0Bft) 0,0km/h 0,0l/m² 0,000klx 0,0min
05:10 9,1°C 82,5% 6,3°C 1015,9hPa 9,1°C 0,0km/h (0Bft) 0,0km/h 0,0l/m² 0,000klx 0,0min
05:05 9,2°C 82,1% 6,3°C 1015,9hPa 9,2°C 0,0km/h (0Bft) 0,0km/h 0,0l/m² 0,000klx 0,0min
05:00 9,2°C 82,3% 6,3°C 1015,7hPa 9,2°C 0,0km/h (0Bft) 0,0km/h 0,0l/m² 0,000klx 0,0min
04:55 9,3°C 81,8% 6,3°C 1015,9hPa 9,3°C 0,0km/h (0Bft) 0,0km/h 0,0l/m² 0,000klx 0,0min
04:50 9,3°C 81,9% 6,4°C 1015,9hPa 9,3°C 0,0km/h (0Bft) 0,0km/h 0,0l/m² 0,000klx 0,0min
04:45 9,4°C 81,5% 6,3°C 1015,7hPa 9,4°C 0,0km/h (0Bft) 0,0km/h 0,0l/m² 0,000klx 0,0min
04:40 9,5°C 81,1% 6,4°C 1015,7hPa 9,5°C 0,0km/h (0Bft) 0,0km/h 0,0l/m² 0,000klx 0,0min
04:35 9,5°C 81,0% 6,4°C 1015,9hPa 9,5°C 0,0km/h (0Bft) 0,0km/h 0,0l/m² 0,000klx 0,0min
04:30 9,6°C 81,1% 6,5°C 1016,0hPa 9,6°C 0,0km/h (0Bft) 0,0km/h 0,0l/m² 0,000klx 0,0min
04:25 9,8°C 80,5% 6,6°C 1016,0hPa 9,8°C 0,0km/h (0Bft) 0,0km/h 0,0l/m² 0,000klx 0,0min
04:20 9,8°C 80,1% 6,5°C 1016,1hPa 9,8°C 0,0km/h (0Bft) 0,0km/h 0,0l/m² 0,000klx 0,0min
04:15 9,9°C 79,8% 6,6°C 1016,1hPa 9,9°C 0,0km/h (0Bft) 0,0km/h 0,0l/m² 0,000klx 0,0min
04:10 10,0°C 79,7% 6,6°C 1016,1hPa 10,0°C 0,0km/h (0Bft) 0,0km/h 0,0l/m² 0,000klx 0,0min
04:05 10,0°C 79,4% 6,6°C 1016,1hPa 10,0°C 0,0km/h (0Bft) 0,0km/h 0,0l/m² 0,000klx 0,0min
04:00 10,1°C 79,0% 6,6°C 1016,0hPa 10,1°C 0,0km/h (0Bft) 0,0km/h 0,0l/m² 0,000klx 0,0min
03:55 10,1°C 79,3% 6,6°C 1016,0hPa 10,1°C 0,0km/h (0Bft) 0,0km/h 0,0l/m² 0,000klx 0,0min
03:50 10,1°C 79,3% 6,7°C 1015,9hPa 10,1°C 0,0km/h (0Bft) 0,0km/h 0,0l/m² 0,000klx 0,0min
03:45 10,1°C 79,5% 6,7°C 1015,8hPa 10,1°C 0,0km/h (0Bft) 0,0km/h 0,0l/m² 0,000klx 0,0min
03:40 10,1°C 79,5% 6,7°C 1015,9hPa 10,1°C 0,0km/h (0Bft) 0,0km/h 0,0l/m² 0,000klx 0,0min
03:35 10,1°C 80,3% 6,8°C 1016,1hPa 10,1°C 0,0km/h (0Bft) 0,0km/h 0,0l/m² 0,000klx 0,0min
03:30 10,1°C 80,2% 6,8°C 1016,1hPa 10,1°C 0,0km/h (0Bft) 0,0km/h 0,0l/m² 0,000klx 0,0min
03:25 10,0°C 82,2% 7,1°C 1016,0hPa 10,0°C 0,0km/h (0Bft) 0,0km/h 0,0l/m² 0,000klx 0,0min
03:20 10,0°C 82,3% 7,1°C 1016,1hPa 10,0°C 0,0km/h (0Bft) 0,0km/h 0,0l/m² 0,000klx 0,0min
03:15 10,0°C 83,4% 7,3°C 1016,1hPa 10,0°C 0,0km/h (0Bft) 0,0km/h 0,0l/m² 0,000klx 0,0min
03:10 9,8°C 85,3% 7,5°C 1016,2hPa 9,8°C 0,0km/h (0Bft) 0,0km/h 0,0l/m² 0,000klx 0,0min
03:05 9,9°C 84,2% 7,4°C 1016,1hPa 9,9°C 0,0km/h (0Bft) 0,0km/h 0,0l/m² 0,000klx 0,0min
03:00 10,0°C 83,5% 7,3°C 1016,1hPa 10,0°C 0,0km/h (0Bft) 0,0km/h 0,0l/m² 0,000klx 0,0min
02:55 10,1°C 82,7% 7,3°C 1016,1hPa 10,1°C 0,0km/h (0Bft) 0,0km/h 0,0l/m² 0,000klx 0,0min
02:50 10,2°C 83,0% 7,4°C 1016,1hPa 10,2°C 0,0km/h (0Bft) 0,0km/h 0,0l/m² 0,000klx 0,0min
02:45 10,2°C 82,7% 7,4°C 1016,2hPa 10,2°C 0,0km/h (0Bft) 0,0km/h 0,0l/m² 0,000klx 0,0min
02:40 10,3°C 82,1% 7,3°C 1016,3hPa 10,3°C 0,0km/h (0Bft) 0,0km/h 0,0l/m² 0,000klx 0,0min
02:35 10,3°C 82,7% 7,4°C 1016,2hPa 10,3°C 0,0km/h (0Bft) 0,0km/h 0,0l/m² 0,000klx 0,0min
02:30 10,3°C 82,7% 7,4°C 1016,3hPa 10,3°C 0,0km/h (0Bft) 0,0km/h 0,0l/m² 0,000klx 0,0min
02:25 10,4°C 81,5% 7,4°C 1016,3hPa 10,4°C 0,0km/h (0Bft) 0,0km/h 0,0l/m² 0,000klx 0,0min
02:20 10,5°C 81,6% 7,5°C 1016,2hPa 10,5°C 0,0km/h (0Bft) 0,0km/h 0,0l/m² 0,000klx 0,0min
02:15 10,6°C 81,2% 7,5°C 1016,2hPa 10,6°C 0,0km/h (0Bft) 0,0km/h 0,0l/m² 0,000klx 0,0min
02:10 10,8°C 81,0% 7,6°C 1016,3hPa 10,8°C 0,0km/h (0Bft) 0,0km/h 0,0l/m² 0,000klx 0,0min
02:05 10,6°C 83,1% 7,9°C 1016,4hPa 10,6°C 0,0km/h (0Bft) 0,0km/h 0,0l/m² 0,000klx 0,0min
02:00 10,5°C 85,4% 8,1°C 1016,6hPa 10,5°C 0,0km/h (0Bft) 0,0km/h 0,0l/m² 0,000klx 0,0min
01:55 10,6°C 84,5% 8,1°C 1016,6hPa 10,6°C 0,0km/h (0Bft) 0,0km/h 0,0l/m² 0,000klx 0,0min
01:50 10,7°C 84,5% 8,2°C 1016,5hPa 10,7°C 0,0km/h (0Bft) 0,0km/h 0,0l/m² 0,000klx 0,0min
01:45 10,7°C 84,3% 8,2°C 1016,5hPa 10,7°C 0,0km/h (0Bft) 0,0km/h 0,0l/m² 0,000klx 0,0min
01:40 10,7°C 83,9% 8,1°C 1016,6hPa 10,7°C 0,0km/h (0Bft) 0,0km/h 0,0l/m² 0,000klx 0,0min
01:35 10,9°C 82,8% 8,0°C 1016,7hPa 10,9°C 0,0km/h (0Bft) 0,0km/h 0,0l/m² 0,000klx 0,0min
01:30 10,8°C 83,5% 8,1°C 1016,7hPa 10,8°C 0,0km/h (0Bft) 0,0km/h 0,0l/m² 0,000klx 0,0min
01:25 10,9°C 82,8% 8,0°C 1016,6hPa 10,9°C 0,0km/h (0Bft) 0,0km/h 0,0l/m² 0,000klx 0,0min
01:20 10,9°C 82,5% 8,0°C 1016,6hPa 10,9°C 0,0km/h (0Bft) 0,0km/h 0,0l/m² 0,000klx 0,0min
01:15 10,8°C 83,8% 8,1°C 1016,6hPa 10,8°C 0,0km/h (0Bft) 0,0km/h 0,0l/m² 0,000klx 0,0min
01:10 10,7°C 84,5% 8,2°C 1016,6hPa 10,7°C 0,0km/h (0Bft) 0,0km/h 0,0l/m² 0,000klx 0,0min
01:05 10,7°C 84,9% 8,2°C 1016,6hPa 10,7°C 0,0km/h (0Bft) 0,0km/h 0,0l/m² 0,000klx 0,0min
01:00 10,6°C 85,7% 8,3°C 1016,5hPa 10,6°C 0,0km/h (0Bft) 0,0km/h 0,0l/m² 0,000klx 0,0min
00:55 10,4°C 87,8% 8,5°C 1016,5hPa 10,4°C 0,0km/h (0Bft) 0,0km/h 0,0l/m² 0,000klx 0,0min
00:50 10,3°C 89,2% 8,6°C 1016,5hPa 10,3°C 0,0km/h (0Bft) 0,0km/h 0,0l/m² 0,000klx 0,0min
00:45 10,3°C 88,8% 8,6°C 1016,5hPa 10,3°C 0,0km/h (0Bft) 0,0km/h 0,0l/m² 0,000klx 0,0min
00:40 10,2°C 90,6% 8,7°C 1016,4hPa 10,2°C 0,0km/h (0Bft) 0,0km/h 0,0l/m² 0,000klx 0,0min
00:35 10,1°C 91,4% 8,7°C 1016,4hPa 10,1°C 0,0km/h (0Bft) 0,0km/h 0,0l/m² 0,000klx 0,0min
00:30 9,9°C 93,1% 8,8°C 1016,5hPa 9,9°C 0,0km/h (0Bft) 0,0km/h 0,0l/m² 0,000klx 0,0min
00:25 9,8°C 92,9% 8,7°C 1016,5hPa 9,8°C 0,0km/h (0Bft) 0,0km/h 0,0l/m² 0,000klx 0,0min
00:20 9,8°C 92,7% 8,7°C 1016,5hPa 9,8°C 0,0km/h (0Bft) 0,0km/h 0,0l/m² 0,000klx 0,0min
00:15 10,0°C 91,7% 8,7°C 1016,4hPa 10,0°C 0,0km/h (0Bft) 0,0km/h 0,0l/m² 0,000klx 0,0min
00:10 10,2°C 90,6% 8,7°C 1016,3hPa 10,2°C 0,0km/h (0Bft) 0,0km/h 0,0l/m² 0,000klx 0,0min
00:05 10,3°C 90,0% 8,7°C 1016,3hPa 10,3°C 0,0km/h (0Bft) 0,0km/h 0,0l/m² 0,000klx 0,0min
00:00 10,3°C 90,4% 8,8°C 1016,2hPa 10,3°C 0,0km/h (0Bft) 0,0km/h 0,0l/m² 0,000klx 0,0min

Aktuelle Wetterdaten

24.04.2018 14:30 Uhr